Aerouant Breizh — FIHX — position and weather

sailwx.info

Track history (hours):
 
Tides and Currents Weather Stations Pressure Air Temp Water Temp Dewpoint Dewpoint Depression Visibility Wind Speed Wind Dir Waves Ship Positions

Aerouant Breizh

Last reported at 2017-Oct-18 23:57 UTC. Time now 2017-Oct-19 21:55 UTC.
Position N 48°06' W 004°19'.

Length 15 m.

Type: Fishing. MMSI: 228037600.

Date/timePositionNaut miles runAvg speedWind from/ knotsBaromVisibWave heightAir tempDewpointWater temp
2017-Oct-18 23:57N 48°06' W 004°19'3 5.8
2017-Oct-18 23:31N 48°08' W 004°22'4 7.4
2017-Oct-18 23:01N 48°11' W 004°24'2 3.1
2017-Oct-18 22:30N 48°12' W 004°26'2 4.2
2017-Oct-18 22:00N 48°10' W 004°28'4 7.3
2017-Oct-18 21:30N 48°08' W 004°32'3 6.5
2017-Oct-18 21:00N 48°08' W 004°37'4 8.3
2017-Oct-18 20:30N 48°11' W 004°42'4 8.9
2017-Oct-18 20:00N 48°14' W 004°47'3 6.4
2017-Oct-18 19:30N 48°15' W 004°52'2 4.9
2017-Oct-18 19:00N 48°17' W 004°54'1 1.0
2017-Oct-18 18:30N 48°17' W 004°53'1 1.3
2017-Oct-18 18:00N 48°17' W 004°54'2 3.2
2017-Oct-18 17:30N 48°17' W 004°52'5 9.6
2017-Oct-18 17:01N 48°13' W 004°46'5 9.6
2017-Oct-18 16:30N 48°11' W 004°40'510.2
2017-Oct-18 16:00N 48°09' W 004°34'510.0
2017-Oct-18 15:30N 48°08' W 004°26'5 9.7
2017-Oct-18 15:00N 48°06' W 004°19'0 0.0
2017-Oct-18 00:04N 48°06' W 004°19'0 0.2
2017-Oct-18 00:00N 48°06' W 004°19'4 8.8
2017-Oct-17 23:30N 48°09' W 004°25'2 4.4
2017-Oct-17 23:00N 48°10' W 004°27'0 0.5
2017-Oct-17 22:30N 48°10' W 004°27'0 0.3
2017-Oct-17 22:00N 48°10' W 004°27'1 1.2
2017-Oct-17 21:31N 48°10' W 004°27'0 0.3
2017-Oct-17 21:00N 48°10' W 004°27'0 0.1
2017-Oct-17 20:30N 48°10' W 004°27'4 7.3
2017-Oct-17 20:00N 48°08' W 004°32'4 7.6
2017-Oct-17 19:30N 48°09' W 004°37'4 8.9
2017-Oct-17 19:00N 48°13' W 004°41'5 9.8
2017-Oct-17 18:30N 48°17' W 004°41'1 2.5
2017-Oct-17 18:00N 48°18' W 004°43'4 8.9
2017-Oct-17 17:30N 48°17' W 004°50'2 4.5
2017-Oct-17 17:01N 48°15' W 004°49'4 9.0
2017-Oct-17 16:30N 48°12' W 004°44'5 9.2
2017-Oct-17 16:00N 48°10' W 004°38'5 9.7
2017-Oct-17 15:30N 48°09' W 004°31'5 9.5
2017-Oct-17 15:00N 48°08' W 004°24'3 0.2
2017-Oct-16 21:13N 48°06' W 004°19'1 6.7
2017-Oct-16 21:01N 48°07' W 004°19'3 6.9
2017-Oct-16 20:31N 48°11' W 004°20'5 9.0
2017-Oct-16 20:00N 48°08' W 004°26'2 4.8
2017-Oct-16 19:31N 48°09' W 004°23'4 7.8
2017-Oct-16 19:01N 48°07' W 004°18'1 0.0
2017-Oct-15 20:10N 48°06' W 004°19'1 5.8
2017-Oct-15 20:00N 48°06' W 004°18'4 8.8
2017-Oct-15 19:31N 48°11' W 004°19'4 7.7
2017-Oct-15 19:01N 48°11' W 004°25'3 5.1
2017-Oct-15 18:31N 48°10' W 004°28'1 1.7
2017-Oct-15 18:00N 48°10' W 004°27'2 4.1
2017-Oct-15 17:30N 48°08' W 004°28'2 3.3
2017-Oct-15 17:01N 48°08' W 004°31'4 7.1
2017-Oct-15 16:31N 48°08' W 004°36'5 9.2
2017-Oct-15 16:01N 48°09' W 004°29'5 9.7
2017-Oct-15 15:30N 48°07' W 004°22'3 5.3
2017-Oct-15 15:01N 48°06' W 004°19'  
2017-Oct-12 23:11N 48°06' W 004°19'1 6.0
2017-Oct-12 23:00N 48°07' W 004°20'4 8.2
2017-Oct-12 22:30N 48°08' W 004°26'0 0.9
2017-Oct-12 22:00N 48°09' W 004°26'0 0.6
2017-Oct-12 21:30N 48°09' W 004°25'3 5.2
2017-Oct-12 21:00N 48°09' W 004°29'4 8.9
2017-Oct-12 20:30N 48°10' W 004°36'5 9.4
2017-Oct-12 20:01N 48°13' W 004°41'5 9.4
2017-Oct-12 19:30N 48°16' W 004°47'4 7.3
2017-Oct-12 19:01N 48°18' W 004°51'0 0.8
2017-Oct-12 18:31N 48°17' W 004°51'0 0.5
2017-Oct-12 18:01N 48°17' W 004°51'1 1.4
2017-Oct-12 17:30N 48°17' W 004°50'5 9.6
2017-Oct-12 17:01N 48°13' W 004°46'5 9.6
2017-Oct-12 16:31N 48°11' W 004°39'5 9.5
2017-Oct-12 16:00N 48°09' W 004°33'5 9.5
2017-Oct-12 15:30N 48°08' W 004°26'5 9.4
2017-Oct-12 15:01N 48°06' W 004°19'0 0.0
2017-Oct-11 20:36N 48°06' W 004°20'0 4.0
2017-Oct-11 20:31N 48°06' W 004°19'5 9.8
2017-Oct-11 20:00N 48°07' W 004°26'3 5.3
2017-Oct-11 19:31N 48°08' W 004°30'0 0.5
2017-Oct-11 19:00N 48°08' W 004°30'2 4.6
2017-Oct-11 18:30N 48°09' W 004°28'2 4.1
2017-Oct-11 18:00N 48°07' W 004°29'1 1.3
2017-Oct-11 17:31N 48°07' W 004°29'1 1.1
2017-Oct-11 17:00N 48°06' W 004°29'3 0.2
2017-Oct-11 00:01N 48°08' W 004°31'5 9.2
2017-Oct-10 23:31N 48°11' W 004°37'510.1
2017-Oct-10 23:01N 48°14' W 004°43'4 7.3
2017-Oct-10 22:31N 48°16' W 004°48'1 2.3
2017-Oct-10 22:01N 48°17' W 004°49'1 1.9
2017-Oct-10 21:30N 48°17' W 004°50'0 0.8
2017-Oct-10 21:01N 48°17' W 004°50'0 0.5
2017-Oct-10 20:31N 48°17' W 004°50'1 2.0
2017-Oct-10 20:01N 48°17' W 004°48'2 3.9
2017-Oct-10 19:31N 48°16' W 004°46'1 1.3
2017-Oct-10 19:01N 48°17' W 004°46'4 7.8
2017-Oct-10 18:30N 48°18' W 004°52'2 4.5
2017-Oct-10 18:01N 48°17' W 004°49'2 3.7
2017-Oct-10 17:31N 48°15' W 004°49'5 9.5
2017-Oct-10 17:01N 48°12' W 004°43'4 8.8
2017-Oct-10 16:31N 48°10' W 004°37'4 8.9
2017-Oct-10 16:00N 48°09' W 004°31'4 9.0
2017-Oct-10 15:30N 48°08' W 004°24'4 7.2
2017-Oct-10 15:01N 48°06' W 004°19'0 0.0
2017-Oct-09 22:35N 48°06' W 004°19'0 3.7
2017-Oct-09 22:30N 48°06' W 004°19'5 9.6
2017-Oct-09 22:00N 48°08' W 004°26'3 5.5
2017-Oct-09 21:31N 48°08' W 004°30'3 6.4
2017-Oct-09 21:00N 48°09' W 004°35'5 9.6
2017-Oct-09 20:30N 48°11' W 004°41'510.2
2017-Oct-09 20:00N 48°14' W 004°48'1 1.5
2017-Oct-09 19:30N 48°14' W 004°49'1 1.9
2017-Oct-09 19:00N 48°15' W 004°49'0 0.5
2017-Oct-09 18:30N 48°15' W 004°49'1 1.9
2017-Oct-09 18:00N 48°16' W 004°50'1 2.5
2017-Oct-09 17:30N 48°15' W 004°49'5 9.5
2017-Oct-09 17:00N 48°12' W 004°43'5 9.8
2017-Oct-09 16:30N 48°10' W 004°37'5 9.6
2017-Oct-09 16:00N 48°09' W 004°30'5 9.9
2017-Oct-09 15:30N 48°07' W 004°23'  
Track history (hours):
 
Tides and Currents Weather Stations Pressure Air Temp Water Temp Dewpoint Dewpoint Depression Visibility Wind Speed Wind Dir Waves Ship Positions

Aerouant Breizh

Last reported at 2017-Oct-18 23:57 UTC. Time now 2017-Oct-19 21:55 UTC.
Position N 48°06' W 004°19'.

Length 15 m.

Type: Fishing. MMSI: 228037600.

Date/timePositionNaut miles runAvg speedWind from/ knotsBaromVisibWave heightAir tempDewpointWater temp
2017-Oct-18 23:57N 48°06' W 004°19'3 5.8
2017-Oct-18 23:31N 48°08' W 004°22'4 7.4
2017-Oct-18 23:01N 48°11' W 004°24'2 3.1
2017-Oct-18 22:30N 48°12' W 004°26'2 4.2
2017-Oct-18 22:00N 48°10' W 004°28'4 7.3
2017-Oct-18 21:30N 48°08' W 004°32'3 6.5
2017-Oct-18 21:00N 48°08' W 004°37'4 8.3
2017-Oct-18 20:30N 48°11' W 004°42'4 8.9
2017-Oct-18 20:00N 48°14' W 004°47'3 6.4
2017-Oct-18 19:30N 48°15' W 004°52'2 4.9
2017-Oct-18 19:00N 48°17' W 004°54'1 1.0
2017-Oct-18 18:30N 48°17' W 004°53'1 1.3
2017-Oct-18 18:00N 48°17' W 004°54'2 3.2
2017-Oct-18 17:30N 48°17' W 004°52'5 9.6
2017-Oct-18 17:01N 48°13' W 004°46'5 9.6
2017-Oct-18 16:30N 48°11' W 004°40'510.2
2017-Oct-18 16:00N 48°09' W 004°34'510.0
2017-Oct-18 15:30N 48°08' W 004°26'5 9.7
2017-Oct-18 15:00N 48°06' W 004°19'0 0.0
2017-Oct-18 00:04N 48°06' W 004°19'0 0.2
2017-Oct-18 00:00N 48°06' W 004°19'4 8.8
2017-Oct-17 23:30N 48°09' W 004°25'2 4.4
2017-Oct-17 23:00N 48°10' W 004°27'0 0.5
2017-Oct-17 22:30N 48°10' W 004°27'0 0.3
2017-Oct-17 22:00N 48°10' W 004°27'1 1.2
2017-Oct-17 21:31N 48°10' W 004°27'0 0.3
2017-Oct-17 21:00N 48°10' W 004°27'0 0.1
2017-Oct-17 20:30N 48°10' W 004°27'4 7.3
2017-Oct-17 20:00N 48°08' W 004°32'4 7.6
2017-Oct-17 19:30N 48°09' W 004°37'4 8.9
2017-Oct-17 19:00N 48°13' W 004°41'5 9.8
2017-Oct-17 18:30N 48°17' W 004°41'1 2.5
2017-Oct-17 18:00N 48°18' W 004°43'4 8.9
2017-Oct-17 17:30N 48°17' W 004°50'2 4.5
2017-Oct-17 17:01N 48°15' W 004°49'4 9.0
2017-Oct-17 16:30N 48°12' W 004°44'5 9.2
2017-Oct-17 16:00N 48°10' W 004°38'5 9.7
2017-Oct-17 15:30N 48°09' W 004°31'5 9.5
2017-Oct-17 15:00N 48°08' W 004°24'3 0.2
2017-Oct-16 21:13N 48°06' W 004°19'1 6.7
2017-Oct-16 21:01N 48°07' W 004°19'3 6.9
2017-Oct-16 20:31N 48°11' W 004°20'5 9.0
2017-Oct-16 20:00N 48°08' W 004°26'2 4.8
2017-Oct-16 19:31N 48°09' W 004°23'4 7.8
2017-Oct-16 19:01N 48°07' W 004°18'1 0.0
2017-Oct-15 20:10N 48°06' W 004°19'1 5.8
2017-Oct-15 20:00N 48°06' W 004°18'4 8.8
2017-Oct-15 19:31N 48°11' W 004°19'4 7.7
2017-Oct-15 19:01N 48°11' W 004°25'3 5.1
2017-Oct-15 18:31N 48°10' W 004°28'1 1.7
2017-Oct-15 18:00N 48°10' W 004°27'2 4.1
2017-Oct-15 17:30N 48°08' W 004°28'2 3.3
2017-Oct-15 17:01N 48°08' W 004°31'4 7.1
2017-Oct-15 16:31N 48°08' W 004°36'5 9.2
2017-Oct-15 16:01N 48°09' W 004°29'5 9.7
2017-Oct-15 15:30N 48°07' W 004°22'3 5.3
2017-Oct-15 15:01N 48°06' W 004°19'  
2017-Oct-12 23:11N 48°06' W 004°19'1 6.0
2017-Oct-12 23:00N 48°07' W 004°20'4 8.2
2017-Oct-12 22:30N 48°08' W 004°26'0 0.9
2017-Oct-12 22:00N 48°09' W 004°26'0 0.6
2017-Oct-12 21:30N 48°09' W 004°25'3 5.2
2017-Oct-12 21:00N 48°09' W 004°29'4 8.9
2017-Oct-12 20:30N 48°10' W 004°36'5 9.4
2017-Oct-12 20:01N 48°13' W 004°41'5 9.4
2017-Oct-12 19:30N 48°16' W 004°47'4 7.3
2017-Oct-12 19:01N 48°18' W 004°51'0 0.8
2017-Oct-12 18:31N 48°17' W 004°51'0 0.5
2017-Oct-12 18:01N 48°17' W 004°51'1 1.4
2017-Oct-12 17:30N 48°17' W 004°50'5 9.6
2017-Oct-12 17:01N 48°13' W 004°46'5 9.6
2017-Oct-12 16:31N 48°11' W 004°39'5 9.5
2017-Oct-12 16:00N 48°09' W 004°33'5 9.5
2017-Oct-12 15:30N 48°08' W 004°26'5 9.4
2017-Oct-12 15:01N 48°06' W 004°19'0 0.0
2017-Oct-11 20:36N 48°06' W 004°20'0 4.0
2017-Oct-11 20:31N 48°06' W 004°19'5 9.8
2017-Oct-11 20:00N 48°07' W 004°26'3 5.3
2017-Oct-11 19:31N 48°08' W 004°30'0 0.5
2017-Oct-11 19:00N 48°08' W 004°30'2 4.6
2017-Oct-11 18:30N 48°09' W 004°28'2 4.1
2017-Oct-11 18:00N 48°07' W 004°29'1 1.3
2017-Oct-11 17:31N 48°07' W 004°29'1 1.1
2017-Oct-11 17:00N 48°06' W 004°29'3 0.2
2017-Oct-11 00:01N 48°08' W 004°31'5 9.2
2017-Oct-10 23:31N 48°11' W 004°37'510.1
2017-Oct-10 23:01N 48°14' W 004°43'4 7.3
2017-Oct-10 22:31N 48°16' W 004°48'1 2.3
2017-Oct-10 22:01N 48°17' W 004°49'1 1.9
2017-Oct-10 21:30N 48°17' W 004°50'0 0.8
2017-Oct-10 21:01N 48°17' W 004°50'0 0.5
2017-Oct-10 20:31N 48°17' W 004°50'1 2.0
2017-Oct-10 20:01N 48°17' W 004°48'2 3.9
2017-Oct-10 19:31N 48°16' W 004°46'1 1.3
2017-Oct-10 19:01N 48°17' W 004°46'4 7.8
2017-Oct-10 18:30N 48°18' W 004°52'2 4.5
2017-Oct-10 18:01N 48°17' W 004°49'2 3.7
2017-Oct-10 17:31N 48°15' W 004°49'5 9.5
2017-Oct-10 17:01N 48°12' W 004°43'4 8.8
2017-Oct-10 16:31N 48°10' W 004°37'4 8.9
2017-Oct-10 16:00N 48°09' W 004°31'4 9.0
2017-Oct-10 15:30N 48°08' W 004°24'4 7.2
2017-Oct-10 15:01N 48°06' W 004°19'0 0.0
2017-Oct-09 22:35N 48°06' W 004°19'0 3.7
2017-Oct-09 22:30N 48°06' W 004°19'5 9.6
2017-Oct-09 22:00N 48°08' W 004°26'3 5.5
2017-Oct-09 21:31N 48°08' W 004°30'3 6.4
2017-Oct-09 21:00N 48°09' W 004°35'5 9.6
2017-Oct-09 20:30N 48°11' W 004°41'510.2
2017-Oct-09 20:00N 48°14' W 004°48'1 1.5
2017-Oct-09 19:30N 48°14' W 004°49'1 1.9
2017-Oct-09 19:00N 48°15' W 004°49'0 0.5
2017-Oct-09 18:30N 48°15' W 004°49'1 1.9
2017-Oct-09 18:00N 48°16' W 004°50'1 2.5
2017-Oct-09 17:30N 48°15' W 004°49'5 9.5
2017-Oct-09 17:00N 48°12' W 004°43'5 9.8
2017-Oct-09 16:30N 48°10' W 004°37'5 9.6
2017-Oct-09 16:00N 48°09' W 004°30'5 9.9
2017-Oct-09 15:30N 48°07' W 004°23'  

Dump ship's entire track history